sensor_id;sensor_type;location;lat;lon;timestamp;pressure;altitude;pressure_sealevel;temperature;humidity
64610;BME280;51019;46.090;6.350;2024-03-08T00:00:21;96200.47;;;4.49;100.00
64610;BME280;51019;46.090;6.350;2024-03-08T00:02:48;96199.22;;;4.30;100.00
64610;BME280;51019;46.090;6.350;2024-03-08T00:05:16;96204.56;;;4.05;100.00
64610;BME280;51019;46.090;6.350;2024-03-08T00:07:43;96189.81;;;4.06;100.00
64610;BME280;51019;46.090;6.350;2024-03-08T00:10:12;96194.06;;;4.42;100.00
64610;BME280;51019;46.090;6.350;2024-03-08T00:12:42;96199.31;;;4.64;100.00
64610;BME280;51019;46.090;6.350;2024-03-08T00:15:09;96196.31;;;4.92;100.00
64610;BME280;51019;46.090;6.350;2024-03-08T00:17:39;96092.19;;;4.51;100.00
64610;BME280;51019;46.090;6.350;2024-03-08T00:20:07;96196.44;;;5.02;100.00
64610;BME280;51019;46.090;6.350;2024-03-08T00:22:35;96198.31;;;5.00;100.00
64610;BME280;51019;46.090;6.350;2024-03-08T00:25:03;96185.94;;;5.37;100.00
64610;BME280;51019;46.090;6.350;2024-03-08T00:27:30;96192.19;;;4.44;100.00
64610;BME280;51019;46.090;6.350;2024-03-08T00:29:58;96182.63;;;5.13;100.00
64610;BME280;51019;46.090;6.350;2024-03-08T00:32:26;96190.53;;;4.89;100.00
64610;BME280;51019;46.090;6.350;2024-03-08T00:34:53;96168.88;;;4.55;100.00
64610;BME280;51019;46.090;6.350;2024-03-08T00:37:20;96186.63;;;4.83;100.00
64610;BME280;51019;46.090;6.350;2024-03-08T00:39:47;96106.13;;;4.61;100.00
64610;BME280;51019;46.090;6.350;2024-03-08T00:42:14;96135.03;;;5.23;100.00
64610;BME280;51019;46.090;6.350;2024-03-08T00:44:42;96175.53;;;5.48;100.00
64610;BME280;51019;46.090;6.350;2024-03-08T00:47:11;96172.44;;;5.65;100.00
64610;BME280;51019;46.090;6.350;2024-03-08T00:49:40;96170.44;;;5.58;100.00
64610;BME280;51019;46.090;6.350;2024-03-08T00:52:08;96175.31;;;5.29;100.00
64610;BME280;51019;46.090;6.350;2024-03-08T00:54:36;96101.03;;;4.48;100.00
64610;BME280;51019;46.090;6.350;2024-03-08T00:57:03;96167.16;;;5.11;100.00
64610;BME280;51019;46.090;6.350;2024-03-08T00:59:30;96144.72;;;5.10;100.00
64610;BME280;51019;46.090;6.350;2024-03-08T01:01:58;96105.78;;;4.77;100.00
64610;BME280;51019;46.090;6.350;2024-03-08T01:04:27;96163.97;;;5.41;100.00
64610;BME280;51019;46.090;6.350;2024-03-08T01:06:55;96161.84;;;5.24;100.00
64610;BME280;51019;46.090;6.350;2024-03-08T01:09:22;96139.38;;;5.45;100.00
64610;BME280;51019;46.090;6.350;2024-03-08T01:11:48;96165.75;;;5.52;100.00
64610;BME280;51019;46.090;6.350;2024-03-08T01:14:16;96153.69;;;5.51;100.00
64610;BME280;51019;46.090;6.350;2024-03-08T01:16:43;96150.94;;;5.74;100.00
64610;BME280;51019;46.090;6.350;2024-03-08T01:19:10;96161.13;;;4.88;100.00
64610;BME280;51019;46.090;6.350;2024-03-08T01:21:39;96151.47;;;5.13;100.00
64610;BME280;51019;46.090;6.350;2024-03-08T01:24:06;96153.81;;;5.38;100.00
64610;BME280;51019;46.090;6.350;2024-03-08T01:26:33;96147.56;;;5.29;100.00
64610;BME280;51019;46.090;6.350;2024-03-08T01:29:00;96142.59;;;5.37;100.00
64610;BME280;51019;46.090;6.350;2024-03-08T01:31:28;96144.38;;;5.26;100.00
64610;BME280;51019;46.090;6.350;2024-03-08T01:33:55;96143.53;;;5.47;100.00
64610;BME280;51019;46.090;6.350;2024-03-08T01:36:22;96131.56;;;5.56;100.00
64610;BME280;51019;46.090;6.350;2024-03-08T01:38:52;96135.13;;;5.55;100.00
64610;BME280;51019;46.090;6.350;2024-03-08T01:41:19;96134.22;;;5.77;100.00
64610;BME280;51019;46.090;6.350;2024-03-08T01:43:46;96127.09;;;5.47;100.00
64610;BME280;51019;46.090;6.350;2024-03-08T01:46:16;96130.22;;;5.84;100.00
64610;BME280;51019;46.090;6.350;2024-03-08T01:48:44;96120.66;;;5.19;100.00
64610;BME280;51019;46.090;6.350;2024-03-08T01:51:12;96103.97;;;5.33;100.00
64610;BME280;51019;46.090;6.350;2024-03-08T01:53:40;96066.44;;;5.15;100.00
64610;BME280;51019;46.090;6.350;2024-03-08T01:56:13;96059.28;;;4.96;100.00
64610;BME280;51019;46.090;6.350;2024-03-08T01:58:41;96109.53;;;5.28;100.00
64610;BME280;51019;46.090;6.350;2024-03-08T02:01:10;96104.19;;;5.95;100.00
64610;BME280;51019;46.090;6.350;2024-03-08T02:03:38;96106.25;;;5.69;100.00
64610;BME280;51019;46.090;6.350;2024-03-08T02:06:05;96103.75;;;5.68;100.00
64610;BME280;51019;46.090;6.350;2024-03-08T02:08:35;96098.34;;;5.17;100.00
64610;BME280;51019;46.090;6.350;2024-03-08T02:11:02;96096.38;;;5.52;100.00
64610;BME280;51019;46.090;6.350;2024-03-08T02:13:32;96103.78;;;6.00;100.00
64610;BME280;51019;46.090;6.350;2024-03-08T02:16:00;96091.66;;;5.89;100.00
64610;BME280;51019;46.090;6.350;2024-03-08T02:18:28;96087.91;;;5.39;100.00
64610;BME280;51019;46.090;6.350;2024-03-08T02:20:58;96083.00;;;5.57;100.00
64610;BME280;51019;46.090;6.350;2024-03-08T02:23:26;96083.09;;;6.30;100.00
64610;BME280;51019;46.090;6.350;2024-03-08T02:25:54;96026.75;;;5.24;100.00
64610;BME280;51019;46.090;6.350;2024-03-08T02:28:22;96034.03;;;5.41;100.00
64610;BME280;51019;46.090;6.350;2024-03-08T02:30:50;96076.28;;;5.86;100.00
64610;BME280;51019;46.090;6.350;2024-03-08T02:33:20;96074.94;;;6.03;100.00
64610;BME280;51019;46.090;6.350;2024-03-08T02:35:47;96046.72;;;5.55;100.00
64610;BME280;51019;46.090;6.350;2024-03-08T02:38:18;96064.78;;;6.00;100.00
64610;BME280;51019;46.090;6.350;2024-03-08T02:40:47;96054.91;;;6.14;100.00
64610;BME280;51019;46.090;6.350;2024-03-08T02:43:15;96052.72;;;5.67;100.00
64610;BME280;51019;46.090;6.350;2024-03-08T02:45:43;96057.81;;;6.42;100.00
64610;BME280;51019;46.090;6.350;2024-03-08T02:48:11;96034.94;;;6.45;100.00
64610;BME280;51019;46.090;6.350;2024-03-08T02:50:38;96016.81;;;5.93;100.00
64610;BME280;51019;46.090;6.350;2024-03-08T02:53:08;96043.41;;;5.96;100.00
64610;BME280;51019;46.090;6.350;2024-03-08T02:55:37;96042.47;;;5.97;100.00
64610;BME280;51019;46.090;6.350;2024-03-08T02:58:05;96044.44;;;6.05;100.00
64610;BME280;51019;46.090;6.350;2024-03-08T03:00:34;96013.66;;;5.78;100.00
64610;BME280;51019;46.090;6.350;2024-03-08T03:03:01;96040.00;;;5.96;100.00
64610;BME280;51019;46.090;6.350;2024-03-08T03:05:28;96035.03;;;6.13;100.00
64610;BME280;51019;46.090;6.350;2024-03-08T03:07:56;96028.84;;;6.35;100.00
64610;BME280;51019;46.090;6.350;2024-03-08T03:10:24;96022.53;;;6.28;100.00
64610;BME280;51019;46.090;6.350;2024-03-08T03:12:53;96033.50;;;6.11;100.00
64610;BME280;51019;46.090;6.350;2024-03-08T03:15:20;95975.94;;;6.25;100.00
64610;BME280;51019;46.090;6.350;2024-03-08T03:17:48;96036.97;;;6.21;100.00
64610;BME280;51019;46.090;6.350;2024-03-08T03:20:16;96038.00;;;6.30;100.00
64610;BME280;51019;46.090;6.350;2024-03-08T03:22:51;96044.72;;;6.32;100.00
64610;BME280;51019;46.090;6.350;2024-03-08T03:25:19;96024.25;;;5.97;100.00
64610;BME280;51019;46.090;6.350;2024-03-08T03:27:53;96022.16;;;5.80;100.00
64610;BME280;51019;46.090;6.350;2024-03-08T03:30:22;96016.75;;;6.25;100.00
64610;BME280;51019;46.090;6.350;2024-03-08T03:32:51;96023.66;;;6.35;100.00
64610;BME280;51019;46.090;6.350;2024-03-08T03:35:18;96004.81;;;6.22;100.00
64610;BME280;51019;46.090;6.350;2024-03-08T03:37:46;96015.44;;;6.09;100.00
64610;BME280;51019;46.090;6.350;2024-03-08T03:40:27;95974.59;;;5.68;100.00
64610;BME280;51019;46.090;6.350;2024-03-08T03:42:55;96018.75;;;5.79;100.00
64610;BME280;51019;46.090;6.350;2024-03-08T03:45:22;96001.66;;;6.18;100.00
64610;BME280;51019;46.090;6.350;2024-03-08T03:47:49;96026.53;;;7.03;100.00
64610;BME280;51019;46.090;6.350;2024-03-08T03:50:17;96017.78;;;6.64;100.00
64610;BME280;51019;46.090;6.350;2024-03-08T03:52:45;96001.13;;;6.55;100.00
64610;BME280;51019;46.090;6.350;2024-03-08T03:55:12;96012.56;;;6.64;100.00
64610;BME280;51019;46.090;6.350;2024-03-08T03:57:39;96014.13;;;6.25;100.00
64610;BME280;51019;46.090;6.350;2024-03-08T04:00:09;96008.84;;;6.05;100.00
64610;BME280;51019;46.090;6.350;2024-03-08T04:02:37;95999.66;;;6.62;100.00
64610;BME280;51019;46.090;6.350;2024-03-08T04:05:05;96004.38;;;6.17;100.00
64610;BME280;51019;46.090;6.350;2024-03-08T04:07:33;95998.16;;;6.29;100.00
64610;BME280;51019;46.090;6.350;2024-03-08T04:10:00;96011.59;;;6.34;100.00
64610;BME280;51019;46.090;6.350;2024-03-08T04:12:27;95956.38;;;6.31;100.00
64610;BME280;51019;46.090;6.350;2024-03-08T04:14:56;96003.59;;;6.56;100.00
64610;BME280;51019;46.090;6.350;2024-03-08T04:17:24;96001.53;;;6.50;100.00
64610;BME280;51019;46.090;6.350;2024-03-08T04:19:52;95974.19;;;6.35;100.00
64610;BME280;51019;46.090;6.350;2024-03-08T04:22:19;95944.41;;;6.18;100.00
64610;BME280;51019;46.090;6.350;2024-03-08T04:24:48;95986.66;;;6.32;100.00
64610;BME280;51019;46.090;6.350;2024-03-08T04:27:16;95963.88;;;6.24;100.00
64610;BME280;51019;46.090;6.350;2024-03-08T04:29:43;95991.16;;;6.30;100.00
64610;BME280;51019;46.090;6.350;2024-03-08T04:32:10;95977.75;;;6.34;100.00
64610;BME280;51019;46.090;6.350;2024-03-08T04:34:40;95987.16;;;6.26;100.00
64610;BME280;51019;46.090;6.350;2024-03-08T04:37:07;95983.44;;;6.49;100.00
64610;BME280;51019;46.090;6.350;2024-03-08T04:39:36;95986.13;;;6.78;100.00
64610;BME280;51019;46.090;6.350;2024-03-08T04:42:05;95986.53;;;6.64;100.00
64610;BME280;51019;46.090;6.350;2024-03-08T04:44:36;95985.22;;;6.48;100.00
64610;BME280;51019;46.090;6.350;2024-03-08T04:47:03;95984.22;;;6.70;100.00
64610;BME280;51019;46.090;6.350;2024-03-08T04:49:31;95975.81;;;6.67;100.00
64610;BME280;51019;46.090;6.350;2024-03-08T04:52:02;95978.09;;;6.50;100.00
64610;BME280;51019;46.090;6.350;2024-03-08T04:54:30;95960.75;;;6.70;100.00
64610;BME280;51019;46.090;6.350;2024-03-08T04:56:57;95953.34;;;6.26;100.00
64610;BME280;51019;46.090;6.350;2024-03-08T04:59:25;95965.34;;;6.17;100.00
64610;BME280;51019;46.090;6.350;2024-03-08T05:01:53;95967.63;;;6.31;100.00
64610;BME280;51019;46.090;6.350;2024-03-08T05:04:23;95965.16;;;6.30;100.00
64610;BME280;51019;46.090;6.350;2024-03-08T05:06:50;95955.81;;;5.97;100.00
64610;BME280;51019;46.090;6.350;2024-03-08T05:09:21;95953.88;;;5.99;100.00
64610;BME280;51019;46.090;6.350;2024-03-08T05:11:49;95958.06;;;6.41;100.00
64610;BME280;51019;46.090;6.350;2024-03-08T05:14:17;95943.13;;;6.13;100.00
64610;BME280;51019;46.090;6.350;2024-03-08T05:16:46;95961.81;;;6.18;100.00
64610;BME280;51019;46.090;6.350;2024-03-08T05:19:15;95961.28;;;5.82;100.00
64610;BME280;51019;46.090;6.350;2024-03-08T05:21:45;95952.66;;;5.82;100.00
64610;BME280;51019;46.090;6.350;2024-03-08T05:24:13;95946.34;;;5.96;100.00
64610;BME280;51019;46.090;6.350;2024-03-08T05:26:43;95884.88;;;5.74;100.00
64610;BME280;51019;46.090;6.350;2024-03-08T05:29:11;95947.19;;;6.27;100.00
64610;BME280;51019;46.090;6.350;2024-03-08T05:31:46;95946.19;;;6.18;100.00
64610;BME280;51019;46.090;6.350;2024-03-08T05:34:14;95933.25;;;6.07;100.00
64610;BME280;51019;46.090;6.350;2024-03-08T05:36:41;95939.75;;;5.92;100.00
64610;BME280;51019;46.090;6.350;2024-03-08T05:39:10;95938.97;;;6.01;100.00
64610;BME280;51019;46.090;6.350;2024-03-08T05:41:37;95940.38;;;6.05;100.00
64610;BME280;51019;46.090;6.350;2024-03-08T05:44:07;95903.22;;;5.52;100.00
64610;BME280;51019;46.090;6.350;2024-03-08T05:46:34;95941.03;;;5.65;100.00
64610;BME280;51019;46.090;6.350;2024-03-08T05:49:01;95936.34;;;5.80;100.00
64610;BME280;51019;46.090;6.350;2024-03-08T05:51:31;95933.81;;;5.69;100.00
64610;BME280;51019;46.090;6.350;2024-03-08T05:54:00;95858.44;;;5.06;100.00
64610;BME280;51019;46.090;6.350;2024-03-08T05:56:28;95866.31;;;5.37;100.00
64610;BME280;51019;46.090;6.350;2024-03-08T05:58:56;95930.91;;;5.83;100.00
64610;BME280;51019;46.090;6.350;2024-03-08T06:01:26;95923.44;;;5.48;100.00
64610;BME280;51019;46.090;6.350;2024-03-08T06:03:55;95910.66;;;5.45;100.00
64610;BME280;51019;46.090;6.350;2024-03-08T06:06:23;95923.59;;;5.56;100.00
64610;BME280;51019;46.090;6.350;2024-03-08T06:08:50;95931.88;;;5.61;100.00
64610;BME280;51019;46.090;6.350;2024-03-08T06:11:19;95918.03;;;5.81;100.00
64610;BME280;51019;46.090;6.350;2024-03-08T06:13:48;95917.03;;;5.94;100.00
64610;BME280;51019;46.090;6.350;2024-03-08T06:16:16;95910.31;;;5.70;100.00
64610;BME280;51019;46.090;6.350;2024-03-08T06:18:49;95914.03;;;5.36;100.00
64610;BME280;51019;46.090;6.350;2024-03-08T06:21:16;95922.59;;;5.68;100.00
64610;BME280;51019;46.090;6.350;2024-03-08T06:23:44;95900.09;;;5.58;100.00
64610;BME280;51019;46.090;6.350;2024-03-08T06:26:12;95904.09;;;5.41;100.00
64610;BME280;51019;46.090;6.350;2024-03-08T06:28:39;95927.97;;;5.56;100.00
64610;BME280;51019;46.090;6.350;2024-03-08T06:31:07;95910.19;;;5.93;100.00
64610;BME280;51019;46.090;6.350;2024-03-08T06:33:35;95917.66;;;5.86;100.00
64610;BME280;51019;46.090;6.350;2024-03-08T06:36:05;95917.03;;;5.52;100.00
64610;BME280;51019;46.090;6.350;2024-03-08T06:38:32;95920.88;;;5.78;100.00
64610;BME280;51019;46.090;6.350;2024-03-08T06:41:00;95927.47;;;6.03;100.00
64610;BME280;51019;46.090;6.350;2024-03-08T06:43:29;95921.16;;;5.75;100.00
64610;BME280;51019;46.090;6.350;2024-03-08T06:45:59;95924.72;;;5.95;100.00
64610;BME280;51019;46.090;6.350;2024-03-08T06:48:28;95934.66;;;5.90;100.00
64610;BME280;51019;46.090;6.350;2024-03-08T06:50:55;95891.78;;;5.84;100.00
64610;BME280;51019;46.090;6.350;2024-03-08T06:53:25;95924.59;;;5.97;100.00
64610;BME280;51019;46.090;6.350;2024-03-08T06:55:52;95937.25;;;6.41;100.00
64610;BME280;51019;46.090;6.350;2024-03-08T06:58:20;95938.78;;;5.72;100.00
64610;BME280;51019;46.090;6.350;2024-03-08T07:00:47;95931.84;;;5.82;100.00
64610;BME280;51019;46.090;6.350;2024-03-08T07:03:17;95933.81;;;5.69;100.00
64610;BME280;51019;46.090;6.350;2024-03-08T07:05:44;95934.88;;;5.87;100.00
64610;BME280;51019;46.090;6.350;2024-03-08T07:08:11;95924.25;;;5.90;100.00
64610;BME280;51019;46.090;6.350;2024-03-08T07:10:41;95933.34;;;5.75;100.00
64610;BME280;51019;46.090;6.350;2024-03-08T07:13:10;95920.34;;;5.96;100.00
64610;BME280;51019;46.090;6.350;2024-03-08T07:15:37;95928.34;;;6.44;100.00
64610;BME280;51019;46.090;6.350;2024-03-08T07:18:05;95928.97;;;6.27;100.00
64610;BME280;51019;46.090;6.350;2024-03-08T07:20:34;95918.03;;;6.02;100.00
64610;BME280;51019;46.090;6.350;2024-03-08T07:23:02;95900.28;;;5.87;100.00
64610;BME280;51019;46.090;6.350;2024-03-08T07:25:30;95918.28;;;5.99;100.00
64610;BME280;51019;46.090;6.350;2024-03-08T07:27:59;95920.06;;;6.29;100.00
64610;BME280;51019;46.090;6.350;2024-03-08T07:30:26;95922.84;;;6.07;100.00
64610;BME280;51019;46.090;6.350;2024-03-08T07:33:11;95924.53;;;6.48;98.24
64610;BME280;51019;46.090;6.350;2024-03-08T07:35:39;95928.38;;;6.53;97.29
64610;BME280;51019;46.090;6.350;2024-03-08T07:38:06;95897.91;;;6.44;95.38
64610;BME280;51019;46.090;6.350;2024-03-08T07:40:35;95915.69;;;6.79;94.80
64610;BME280;51019;46.090;6.350;2024-03-08T07:43:05;95910.81;;;6.46;96.22
64610;BME280;51019;46.090;6.350;2024-03-08T07:45:32;95914.41;;;6.54;95.87
64610;BME280;51019;46.090;6.350;2024-03-08T07:48:01;95927.06;;;6.78;96.33
64610;BME280;51019;46.090;6.350;2024-03-08T07:50:28;95902.25;;;6.65;95.32
64610;BME280;51019;46.090;6.350;2024-03-08T07:52:56;95911.75;;;7.04;93.98
64610;BME280;51019;46.090;6.350;2024-03-08T07:55:23;95903.00;;;7.44;90.36
64610;BME280;51019;46.090;6.350;2024-03-08T07:57:52;95907.25;;;7.06;90.20
64610;BME280;51019;46.090;6.350;2024-03-08T08:00:23;95905.44;;;6.87;92.21
64610;BME280;51019;46.090;6.350;2024-03-08T08:02:53;95897.06;;;6.93;91.74
64610;BME280;51019;46.090;6.350;2024-03-08T08:05:20;95899.81;;;7.11;91.38
64610;BME280;51019;46.090;6.350;2024-03-08T08:07:49;95906.53;;;7.14;89.81
64610;BME280;51019;46.090;6.350;2024-03-08T08:10:19;95886.50;;;7.34;88.16
64610;BME280;51019;46.090;6.350;2024-03-08T08:12:48;95898.16;;;7.58;86.75
64610;BME280;51019;46.090;6.350;2024-03-08T08:15:17;95874.13;;;7.74;83.02
64610;BME280;51019;46.090;6.350;2024-03-08T08:17:45;95878.56;;;7.25;86.81
64610;BME280;51019;46.090;6.350;2024-03-08T08:20:13;95883.28;;;8.25;82.05
64610;BME280;51019;46.090;6.350;2024-03-08T08:22:41;95817.19;;;8.34;80.11
64610;BME280;51019;46.090;6.350;2024-03-08T08:25:10;95881.97;;;8.48;78.98
64610;BME280;51019;46.090;6.350;2024-03-08T08:27:38;95879.91;;;8.52;76.92
64610;BME280;51019;46.090;6.350;2024-03-08T08:30:11;95871.72;;;8.37;79.78
64610;BME280;51019;46.090;6.350;2024-03-08T08:32:38;95870.53;;;8.77;78.39
64610;BME280;51019;46.090;6.350;2024-03-08T08:35:08;95863.59;;;8.40;79.20
64610;BME280;51019;46.090;6.350;2024-03-08T08:37:39;95865.09;;;8.43;78.74
64610;BME280;51019;46.090;6.350;2024-03-08T08:40:07;95862.59;;;7.67;86.89
64610;BME280;51019;46.090;6.350;2024-03-08T08:42:36;95840.50;;;7.61;84.64
64610;BME280;51019;46.090;6.350;2024-03-08T08:45:05;95871.13;;;8.70;77.71
64610;BME280;51019;46.090;6.350;2024-03-08T08:47:34;95871.00;;;8.45;82.35
64610;BME280;51019;46.090;6.350;2024-03-08T08:50:01;95862.78;;;8.85;80.11
64610;BME280;51019;46.090;6.350;2024-03-08T08:52:31;95844.44;;;8.49;81.82
64610;BME280;51019;46.090;6.350;2024-03-08T08:55:00;95854.38;;;8.46;85.03
64610;BME280;51019;46.090;6.350;2024-03-08T08:57:29;95855.09;;;8.28;83.20
64610;BME280;51019;46.090;6.350;2024-03-08T08:59:58;95862.66;;;7.94;86.24
64610;BME280;51019;46.090;6.350;2024-03-08T09:02:26;95860.19;;;7.93;86.40
64610;BME280;51019;46.090;6.350;2024-03-08T09:04:53;95848.13;;;7.16;90.30
64610;BME280;51019;46.090;6.350;2024-03-08T09:07:21;95859.19;;;7.67;88.58
64610;BME280;51019;46.090;6.350;2024-03-08T09:09:50;95848.19;;;7.63;90.85
64610;BME280;51019;46.090;6.350;2024-03-08T09:12:22;95854.97;;;7.93;87.46
64610;BME280;51019;46.090;6.350;2024-03-08T09:14:50;95844.13;;;8.25;84.83
64610;BME280;51019;46.090;6.350;2024-03-08T09:17:18;95834.28;;;8.19;85.03
64610;BME280;51019;46.090;6.350;2024-03-08T09:19:46;95835.78;;;8.21;83.35
64610;BME280;51019;46.090;6.350;2024-03-08T09:22:13;95841.38;;;8.26;85.10
64610;BME280;51019;46.090;6.350;2024-03-08T09:24:40;95840.63;;;8.07;86.40
64610;BME280;51019;46.090;6.350;2024-03-08T09:27:10;95834.28;;;8.19;84.43
64610;BME280;51019;46.090;6.350;2024-03-08T09:29:39;95823.13;;;8.71;81.99
64610;BME280;51019;46.090;6.350;2024-03-08T09:32:07;95813.78;;;8.24;84.04
64610;BME280;51019;46.090;6.350;2024-03-08T09:34:35;95831.06;;;7.97;86.30
64610;BME280;51019;46.090;6.350;2024-03-08T09:37:04;95825.56;;;8.28;82.73
64610;BME280;51019;46.090;6.350;2024-03-08T09:39:32;95813.44;;;8.64;80.06
64610;BME280;51019;46.090;6.350;2024-03-08T09:41:59;95815.28;;;8.54;80.23
64610;BME280;51019;46.090;6.350;2024-03-08T09:44:28;95814.38;;;9.16;74.25
64610;BME280;51019;46.090;6.350;2024-03-08T09:46:58;95809.69;;;8.66;78.31
64610;BME280;51019;46.090;6.350;2024-03-08T09:49:28;95803.66;;;8.84;76.62
64610;BME280;51019;46.090;6.350;2024-03-08T09:51:55;95801.78;;;9.12;74.17
64610;BME280;51019;46.090;6.350;2024-03-08T09:54:24;95788.84;;;9.54;73.29
64610;BME280;51019;46.090;6.350;2024-03-08T09:56:52;95795.78;;;9.19;73.14
64610;BME280;51019;46.090;6.350;2024-03-08T09:59:20;95792.59;;;9.25;75.14
64610;BME280;51019;46.090;6.350;2024-03-08T10:02:14;95775.47;;;9.57;70.25
64610;BME280;51019;46.090;6.350;2024-03-08T10:04:43;95776.50;;;9.20;71.98
64610;BME280;51019;46.090;6.350;2024-03-08T10:07:12;95770.16;;;9.23;72.96
64610;BME280;51019;46.090;6.350;2024-03-08T10:09:40;95772.06;;;9.64;71.17
64610;BME280;51019;46.090;6.350;2024-03-08T10:12:13;95763.94;;;10.17;68.17
64610;BME280;51019;46.090;6.350;2024-03-08T10:14:42;95770.91;;;10.27;66.09
64610;BME280;51019;46.090;6.350;2024-03-08T10:17:12;95767.94;;;9.62;69.82
64610;BME280;51019;46.090;6.350;2024-03-08T10:19:49;95752.19;;;10.80;66.31
64610;BME280;51019;46.090;6.350;2024-03-08T10:22:19;95752.19;;;11.12;66.01
64610;BME280;51019;46.090;6.350;2024-03-08T10:24:47;95756.34;;;9.90;68.31
64610;BME280;51019;46.090;6.350;2024-03-08T10:27:16;95737.44;;;10.79;65.62
64610;BME280;51019;46.090;6.350;2024-03-08T10:29:47;95716.94;;;12.25;58.38
64610;BME280;51019;46.090;6.350;2024-03-08T10:32:19;95729.97;;;12.42;57.29
64610;BME280;51019;46.090;6.350;2024-03-08T10:34:46;95727.13;;;12.28;59.26
64610;BME280;51019;46.090;6.350;2024-03-08T10:37:16;95691.72;;;12.16;58.64
64610;BME280;51019;46.090;6.350;2024-03-08T10:39:55;95698.84;;;12.30;57.05
64610;BME280;51019;46.090;6.350;2024-03-08T10:42:28;95700.97;;;11.41;58.72
64610;BME280;51019;46.090;6.350;2024-03-08T10:45:03;95699.47;;;10.16;69.36
64610;BME280;51019;46.090;6.350;2024-03-08T10:47:40;95704.28;;;11.35;63.97
64610;BME280;51019;46.090;6.350;2024-03-08T10:50:11;95699.41;;;10.99;66.01
64610;BME280;51019;46.090;6.350;2024-03-08T10:52:47;95694.25;;;12.32;60.32
64610;BME280;51019;46.090;6.350;2024-03-08T10:55:17;95695.53;;;13.28;56.74
64610;BME280;51019;46.090;6.350;2024-03-08T10:57:46;95694.78;;;13.34;55.22
64610;BME280;51019;46.090;6.350;2024-03-08T11:00:15;95695.91;;;12.79;56.66
64610;BME280;51019;46.090;6.350;2024-03-08T11:02:46;95650.25;;;13.47;55.34
64610;BME280;51019;46.090;6.350;2024-03-08T11:05:31;95698.81;;;13.07;54.83
64610;BME280;51019;46.090;6.350;2024-03-08T11:08:02;95685.13;;;11.89;59.40
64610;BME280;51019;46.090;6.350;2024-03-08T11:10:31;95688.88;;;11.32;61.93
64610;BME280;51019;46.090;6.350;2024-03-08T11:13:01;95674.63;;;11.26;64.18
64610;BME280;51019;46.090;6.350;2024-03-08T11:15:29;95667.97;;;10.91;67.00
64610;BME280;51019;46.090;6.350;2024-03-08T11:18:00;95657.84;;;10.72;68.74
64610;BME280;51019;46.090;6.350;2024-03-08T11:20:28;95673.19;;;11.07;67.38
64610;BME280;51019;46.090;6.350;2024-03-08T11:23:01;95670.09;;;10.87;69.38
64610;BME280;51019;46.090;6.350;2024-03-08T11:25:32;95670.22;;;11.26;66.98
64610;BME280;51019;46.090;6.350;2024-03-08T11:28:10;95661.75;;;11.55;66.56
64610;BME280;51019;46.090;6.350;2024-03-08T11:30:43;95666.81;;;12.58;62.66
64610;BME280;51019;46.090;6.350;2024-03-08T11:33:13;95650.09;;;12.96;58.50
64610;BME280;51019;46.090;6.350;2024-03-08T11:35:42;95655.78;;;13.00;59.07
64610;BME280;51019;46.090;6.350;2024-03-08T11:38:12;95665.06;;;13.10;58.52
64610;BME280;51019;46.090;6.350;2024-03-08T11:40:46;95646.63;;;12.96;58.58
64610;BME280;51019;46.090;6.350;2024-03-08T11:43:16;95636.50;;;12.70;58.96
64610;BME280;51019;46.090;6.350;2024-03-08T11:45:43;95638.63;;;12.52;60.35
64610;BME280;51019;46.090;6.350;2024-03-08T11:48:13;95631.59;;;12.21;62.26
64610;BME280;51019;46.090;6.350;2024-03-08T11:50:41;95625.19;;;10.99;67.48
64610;BME280;51019;46.090;6.350;2024-03-08T11:53:08;95611.84;;;11.24;67.43
64610;BME280;51019;46.090;6.350;2024-03-08T11:55:37;95619.56;;;11.18;66.59
64610;BME280;51019;46.090;6.350;2024-03-08T11:58:05;95617.16;;;11.00;68.76
64610;BME280;51019;46.090;6.350;2024-03-08T12:00:33;95614.56;;;10.92;66.59
64610;BME280;51019;46.090;6.350;2024-03-08T12:03:05;95620.28;;;10.96;69.22
64610;BME280;51019;46.090;6.350;2024-03-08T12:05:35;95610.09;;;11.17;67.35
64610;BME280;51019;46.090;6.350;2024-03-08T12:08:04;95611.09;;;11.94;65.00
64610;BME280;51019;46.090;6.350;2024-03-08T12:10:33;95611.81;;;11.80;65.11
64610;BME280;51019;46.090;6.350;2024-03-08T12:13:01;95611.94;;;11.86;65.60
64610;BME280;51019;46.090;6.350;2024-03-08T12:15:33;95602.88;;;11.58;67.48
64610;BME280;51019;46.090;6.350;2024-03-08T12:18:00;95604.72;;;11.49;65.26
64610;BME280;51019;46.090;6.350;2024-03-08T12:20:30;95581.13;;;11.41;65.68
64610;BME280;51019;46.090;6.350;2024-03-08T12:22:59;95574.19;;;11.56;61.02
64610;BME280;51019;46.090;6.350;2024-03-08T12:25:33;95581.78;;;11.82;60.66
64610;BME280;51019;46.090;6.350;2024-03-08T12:28:07;95571.34;;;11.97;60.84
64610;BME280;51019;46.090;6.350;2024-03-08T12:30:45;95570.06;;;12.16;62.89
64610;BME280;51019;46.090;6.350;2024-03-08T12:33:12;95556.41;;;12.20;60.66
64610;BME280;51019;46.090;6.350;2024-03-08T12:35:39;95551.28;;;12.42;62.26
64610;BME280;51019;46.090;6.350;2024-03-08T12:38:09;95551.09;;;11.83;64.72
64610;BME280;51019;46.090;6.350;2024-03-08T12:40:37;95540.59;;;11.75;65.10
64610;BME280;51019;46.090;6.350;2024-03-08T12:43:07;95523.06;;;11.44;64.65
64610;BME280;51019;46.090;6.350;2024-03-08T12:45:35;95531.09;;;11.43;64.12
64610;BME280;51019;46.090;6.350;2024-03-08T12:48:02;95503.81;;;11.60;61.08
64610;BME280;51019;46.090;6.350;2024-03-08T12:50:30;95508.03;;;11.30;65.55
64610;BME280;51019;46.090;6.350;2024-03-08T12:52:57;95496.75;;;11.60;64.22
64610;BME280;51019;46.090;6.350;2024-03-08T12:55:27;95477.59;;;11.52;65.66
64610;BME280;51019;46.090;6.350;2024-03-08T12:57:54;95504.94;;;11.88;62.26
64610;BME280;51019;46.090;6.350;2024-03-08T13:00:21;95450.44;;;11.45;64.58
64610;BME280;51019;46.090;6.350;2024-03-08T13:02:49;95474.16;;;11.82;64.26
64610;BME280;51019;46.090;6.350;2024-03-08T13:05:17;95475.69;;;11.69;64.09
64610;BME280;51019;46.090;6.350;2024-03-08T13:07:45;95473.72;;;11.71;63.43
64610;BME280;51019;46.090;6.350;2024-03-08T13:10:14;95451.03;;;11.24;65.98